Terminal Aerodrome Forecast
Issued by NWS Jackson, KY

Home | Current Version | Previous Version | Text Only | Print | Product List | Glossary On
Versions: 1 2 3 4 5 6 7 8 9 10 11 12 13 14 15 16 17
000
FTUS43 KJKL 181700
TAFJKL
TAF
KJKL 181740Z 1818/1918 29005KT P6SM VCSH OVC035
     FM182100 31004KT P6SM VCSH OVC020
     FM190900 VRB03KT 4SM BR BKN015
     FM191100 00000KT 4SM BR FEW250
     FM191400 00000KT P6SM SCT050=

USA.gov is the U.S. government's official web portal to all federal, state and local government web resources and services.